Miguel Xavier, Brazil
Current Conditions -  °F | °C
As of 3:00 PM on Friday 31 Oct 2014 (Local Time) from SBJU Reporting Station
Scattered Clouds Scattered Clouds  
Wind Chill: 97°   Ceiling: Unl
Heat Index: 97°   Visibility: 6mi
Dew Point: 57°   Wind: 9mph
Humidity: 27%   Direction: 100°E
Pressure: 29.91"   Gusts: NA
Location:  7.1°S, 39.16°W
Report Text: SBJU 311800Z 10008KT 9999 SCT022 36/14 Q1013
Loading
Personal Weather Stations






























Interactive Weather Map
Tropical Storm Tracking
New forecast layout! Learn more

10-Day Weather Forecast

Advertisements
Track Severe Weather on mobile